createdAt,value
2022-09-12T00:01:20.988Z,1.30
2022-09-12T00:06:31.575Z,1.40
2022-09-12T00:11:41.732Z,1.60
2022-09-12T00:16:50.697Z,1.47
2022-09-12T00:22:41.912Z,1.60
2022-09-12T00:27:46.935Z,1.80
2022-09-12T00:32:51.746Z,1.67
2022-09-12T00:37:55.474Z,1.70
2022-09-12T00:43:00.515Z,1.50
2022-09-12T00:48:05.648Z,1.37
2022-09-12T00:53:10.485Z,1.50
2022-09-12T00:58:21.559Z,1.67
2022-09-12T01:03:26.442Z,1.80
2022-09-12T01:08:30.754Z,1.30
2022-09-12T01:13:36.577Z,1.83
2022-09-12T01:19:01.034Z,1.80
2022-09-12T01:24:34.324Z,1.80
2022-09-12T01:29:57.570Z,1.50
2022-09-12T01:35:12.780Z,1.20
2022-09-12T01:40:24.195Z,1.40
2022-09-12T01:45:31.795Z,1.50
2022-09-12T01:50:44.942Z,1.30
2022-09-12T01:55:53.074Z,1.57
2022-09-12T02:01:09.036Z,1.40
2022-09-12T02:06:19.410Z,1.50
2022-09-12T02:11:23.493Z,1.80
2022-09-12T02:16:31.716Z,1.80
2022-09-12T02:21:41.501Z,1.70
2022-09-12T02:26:50.247Z,1.30
2022-09-12T02:31:58.924Z,1.93
2022-09-12T02:37:14.429Z,1.80
2022-09-12T02:42:17.929Z,1.50
2022-09-12T02:47:26.627Z,1.87
2022-09-12T02:52:31.906Z,1.80
2022-09-12T02:57:35.486Z,1.60
2022-09-12T03:03:06.741Z,1.50
2022-09-12T03:08:37.595Z,1.63
2022-09-12T03:13:51.353Z,1.77
2022-09-12T03:19:01.961Z,1.73
2022-09-12T03:24:14.572Z,1.90
2022-09-12T03:29:20.712Z,1.80
2022-09-12T03:34:25.695Z,1.97
2022-09-12T03:39:30.581Z,2.10
2022-09-12T03:44:34.061Z,1.83
2022-09-12T03:49:37.568Z,1.60
2022-09-12T03:54:42.465Z,1.83
2022-09-12T03:59:45.936Z,1.50
2022-09-12T04:04:49.461Z,1.67
2022-09-12T04:09:55.098Z,1.40
2022-09-12T04:14:58.664Z,1.73
2022-09-12T04:20:02.632Z,1.70
2022-09-12T04:25:09.733Z,1.77
2022-09-12T04:30:14.152Z,1.60
2022-09-12T04:35:17.836Z,1.90
2022-09-12T04:40:23.013Z,1.50
2022-09-12T04:45:26.774Z,1.60
2022-09-12T04:50:30.354Z,1.73
2022-09-12T04:55:36.853Z,1.60
2022-09-12T05:00:40.372Z,1.70
2022-09-12T05:05:43.771Z,1.70
2022-09-12T05:10:48.775Z,1.80
2022-09-12T05:15:58.585Z,1.70
2022-09-12T05:21:03.047Z,1.80
2022-09-12T05:26:09.127Z,1.80
2022-09-12T05:31:14.645Z,1.73
2022-09-12T05:36:20.553Z,1.50
2022-09-12T05:41:27.301Z,1.57
2022-09-12T05:46:33.000Z,1.47
2022-09-12T05:51:38.682Z,1.80
2022-09-12T05:56:46.761Z,1.80
2022-09-12T06:01:50.485Z,1.63
2022-09-12T06:06:53.936Z,1.60
2022-09-12T06:11:58.987Z,1.97
2022-09-12T06:17:02.553Z,1.80
2022-09-12T06:22:06.189Z,1.77
2022-09-12T06:27:11.218Z,1.67
2022-09-12T06:32:14.763Z,1.50
2022-09-12T06:37:18.271Z,1.60
2022-09-12T06:42:23.488Z,1.43
2022-09-12T06:47:27.103Z,1.73
2022-09-12T06:52:30.837Z,1.60
2022-09-12T06:57:37.138Z,1.60
2022-09-12T07:02:40.798Z,1.30
2022-09-12T07:07:44.300Z,1.27
2022-09-12T07:12:49.405Z,1.30
2022-09-12T07:17:52.839Z,1.13
2022-09-12T07:22:56.243Z,1.10
2022-09-12T07:28:01.131Z,1.07
2022-09-12T07:33:04.591Z,1.10
2022-09-12T07:38:08.549Z,1.10
2022-09-12T07:43:13.479Z,1.20
2022-09-12T07:48:17.613Z,1.07
2022-09-12T07:53:21.019Z,0.87
2022-09-12T07:58:27.097Z,0.70
2022-09-12T08:03:30.574Z,1.00
2022-09-12T08:08:34.079Z,0.90
2022-09-12T08:13:40.436Z,0.90
2022-09-12T08:18:43.938Z,1.00
2022-09-12T08:23:47.769Z,0.73
2022-09-12T08:28:53.486Z,1.10
2022-09-12T08:33:58.436Z,1.03
2022-09-12T08:39:04.685Z,0.83
2022-09-12T08:44:23.820Z,0.70
2022-09-12T08:49:31.341Z,0.83
2022-09-12T08:54:35.710Z,1.00
2022-09-12T08:59:42.683Z,1.37
2022-09-12T09:04:50.465Z,0.80
2022-09-12T09:10:08.230Z,1.30
2022-09-12T09:15:55.895Z,1.00
2022-09-12T09:21:08.311Z,0.90
2022-09-12T09:26:16.933Z,0.97
2022-09-12T09:31:24.098Z,0.90
2022-09-12T09:36:37.843Z,0.73
2022-09-12T09:41:55.025Z,0.83
2022-09-12T09:47:01.212Z,1.00
2022-09-12T09:52:08.515Z,0.80
2022-09-12T09:57:42.750Z,0.60
2022-09-12T10:03:11.338Z,0.60
2022-09-12T10:08:24.230Z,0.70
2022-09-12T10:13:34.731Z,0.80
2022-09-12T10:18:42.558Z,0.80
2022-09-12T10:23:47.972Z,0.83
2022-09-12T10:28:54.280Z,1.13
2022-09-12T10:34:01.545Z,1.00
2022-09-12T10:39:05.804Z,1.00
2022-09-12T10:44:11.090Z,0.83
2022-09-12T10:49:23.038Z,0.80
2022-09-12T10:54:28.736Z,0.97
2022-09-12T10:59:42.728Z,0.70
2022-09-12T11:04:59.252Z,1.23
2022-09-12T11:10:13.651Z,1.13
2022-09-12T11:15:38.129Z,0.90
2022-09-12T11:21:09.571Z,1.00
2022-09-12T11:26:26.447Z,0.80
2022-09-12T11:32:09.013Z,0.60
2022-09-12T11:37:32.057Z,0.60
2022-09-12T11:42:41.746Z,0.90
2022-09-12T11:47:50.354Z,0.80
2022-09-12T11:53:01.723Z,0.60
2022-09-12T11:58:05.492Z,0.80
2022-09-12T12:03:16.645Z,0.67
2022-09-12T12:08:23.561Z,0.50
2022-09-12T12:13:31.303Z,0.80
2022-09-12T12:18:38.265Z,1.00
2022-09-12T12:24:04.102Z,1.00
2022-09-12T12:29:11.327Z,0.60
2022-09-12T12:34:29.808Z,0.90
2022-09-12T12:40:01.310Z,0.60
2022-09-12T12:45:45.068Z,0.87
2022-09-12T12:50:49.120Z,0.60
2022-09-12T12:55:54.844Z,0.80
2022-09-12T13:01:13.162Z,0.70
2022-09-12T13:06:32.995Z,0.87
2022-09-12T13:11:39.540Z,0.80
2022-09-12T13:16:57.462Z,1.03
2022-09-12T13:22:03.931Z,1.07
2022-09-12T13:27:18.916Z,0.90
2022-09-12T13:32:23.992Z,0.90
2022-09-12T13:37:49.693Z,0.80
2022-09-12T13:43:08.687Z,1.00
2022-09-12T13:48:18.167Z,1.00
2022-09-12T13:53:25.094Z,0.80
2022-09-12T13:58:30.161Z,0.93
2022-09-12T14:03:58.961Z,0.80
2022-09-12T14:09:02.795Z,0.80
2022-09-12T14:14:08.746Z,0.60
2022-09-12T14:19:16.655Z,0.80
2022-09-12T14:24:24.531Z,0.70
2022-09-12T14:29:28.768Z,1.07
2022-09-12T14:34:33.746Z,0.80
2022-09-12T14:39:41.718Z,0.70
2022-09-12T14:44:56.423Z,0.90
2022-09-12T14:50:01.566Z,0.80
2022-09-12T14:55:31.439Z,0.70
2022-09-12T15:00:36.364Z,0.90
2022-09-12T15:05:50.747Z,1.00
2022-09-12T15:10:54.214Z,0.90
2022-09-12T15:16:01.106Z,0.80
2022-09-12T15:21:12.651Z,0.80
2022-09-12T15:26:19.230Z,1.20
2022-09-12T15:31:29.375Z,1.00
2022-09-12T15:36:35.132Z,0.83
2022-09-12T15:41:40.162Z,0.80
2022-09-12T15:46:44.001Z,1.00
2022-09-12T15:51:49.416Z,1.00
2022-09-12T15:56:53.103Z,0.87
2022-09-12T16:01:56.728Z,1.10
2022-09-12T16:07:02.022Z,1.17
2022-09-12T16:12:05.985Z,1.07
2022-09-12T16:17:09.865Z,1.20
2022-09-12T16:22:15.042Z,1.10
2022-09-12T16:27:18.679Z,1.10
2022-09-12T16:32:22.363Z,1.00
2022-09-12T16:37:27.425Z,0.93
2022-09-12T16:42:31.252Z,1.10
2022-09-12T16:47:34.929Z,1.20
2022-09-12T16:52:40.056Z,1.40
2022-09-12T16:57:43.645Z,1.10
2022-09-12T17:02:50.039Z,1.20
2022-09-12T17:07:55.599Z,1.40
2022-09-12T17:13:00.345Z,1.30
2022-09-12T17:18:04.165Z,1.20
2022-09-12T17:23:09.994Z,1.20
2022-09-12T17:28:14.089Z,1.20
2022-09-12T17:33:18.112Z,1.33
2022-09-12T17:38:25.373Z,1.20
2022-09-12T17:43:29.276Z,1.20
2022-09-12T17:48:33.703Z,1.30
2022-09-12T17:53:39.270Z,1.40
2022-09-12T17:58:43.135Z,1.20
2022-09-12T18:04:01.042Z,1.63
2022-09-12T18:14:54.855Z,1.50
2022-09-12T18:20:03.816Z,1.33
2022-09-12T18:25:34.821Z,1.63
2022-09-12T18:30:43.222Z,1.60
2022-09-12T18:35:52.184Z,1.30
2022-09-12T18:41:28.344Z,1.30
2022-09-12T18:53:58.405Z,1.20
2022-09-12T18:59:56.962Z,1.50
2022-09-12T19:05:32.449Z,1.53
2022-09-12T19:11:01.837Z,1.50
2022-09-12T19:16:12.927Z,1.53
2022-09-12T19:22:16.817Z,1.60
2022-09-12T19:27:25.504Z,1.30
2022-09-12T19:32:39.650Z,1.33
2022-09-12T19:37:48.581Z,1.17
2022-09-12T19:43:13.200Z,1.30
2022-09-12T19:48:28.843Z,1.30
2022-09-12T19:53:53.589Z,1.20
2022-09-12T19:59:10.803Z,1.27
2022-09-12T20:04:35.917Z,1.23
2022-09-12T20:09:47.571Z,1.10
2022-09-12T20:14:51.365Z,1.10
2022-09-12T20:19:55.307Z,1.10
2022-09-12T20:25:01.504Z,1.50
2022-09-12T20:30:05.841Z,1.17
2022-09-12T20:35:10.868Z,1.33
2022-09-12T20:40:16.589Z,1.17
2022-09-12T20:45:21.947Z,1.07
2022-09-12T20:50:28.215Z,1.23
2022-09-12T20:55:34.360Z,1.00
2022-09-12T21:00:41.709Z,1.17
2022-09-12T21:05:48.047Z,1.10
2022-09-12T21:10:53.369Z,1.27
2022-09-12T21:16:00.721Z,1.20
2022-09-12T21:21:05.231Z,1.23
2022-09-12T21:26:10.477Z,1.40
2022-09-12T21:31:14.312Z,1.40
2022-09-12T21:36:18.127Z,1.27
2022-09-12T21:41:24.496Z,1.10
2022-09-12T21:46:28.389Z,1.17
2022-09-12T21:51:32.156Z,1.23
2022-09-12T21:56:37.409Z,1.30
2022-09-12T22:01:43.412Z,1.50
2022-09-12T22:06:47.128Z,1.50
2022-09-12T22:11:55.832Z,1.10
2022-09-12T22:16:59.489Z,1.50
2022-09-12T22:22:20.726Z,1.37
2022-09-12T22:27:25.880Z,1.13
2022-09-12T22:33:12.880Z,1.20
2022-09-12T22:38:19.225Z,1.30
2022-09-12T22:43:24.546Z,1.20
2022-09-12T22:48:28.460Z,1.40
2022-09-12T22:53:33.593Z,1.20
2022-09-12T22:58:39.083Z,1.10
2022-09-12T23:03:43.588Z,1.63
2022-09-12T23:08:47.486Z,1.00
2022-09-12T23:13:52.917Z,1.60
2022-09-12T23:18:59.639Z,1.50
2022-09-12T23:24:04.047Z,1.40
2022-09-12T23:29:11.766Z,1.57
2022-09-12T23:34:17.468Z,1.40
2022-09-12T23:39:28.887Z,1.60
2022-09-12T23:44:37.074Z,1.83
2022-09-12T23:49:40.855Z,1.70
2022-09-12T23:54:45.723Z,2.00
